Frem Nordica — OVIL2 — position and weather

sailwx.info

Track history (hours):
 
Tides and Currents Weather Stations Pressure Air Temp Water Temp Dewpoint Dewpoint Depression Visibility Wind Speed Wind Dir Waves Ship Positions

Frem Nordica

Last reported at 2015-Jul-31 21:33 UTC. Time now 2015-Aug-01 11:45 UTC.
Position N 57°12' E 017°27'.

Length 79 m; draft 2.8 m.

MMSI: 220439000.

Date/timePositionNaut miles runAvg speedWind from/ knotsBaromVisibWave heightAir tempDewpointWater temp
2015-Jul-31 21:33N 57°12' E 017°27'8 8.1
2015-Jul-31 20:32N 57°19' E 017°32'139 3.1
2015-Jul-29 23:10N 55°07' E 018°48'5 8.0
2015-Jul-29 22:32N 55°02' E 018°50'8 8.1
2015-Jul-29 21:33N 54°54' E 018°54'8 7.9
2015-Jul-29 20:33N 54°47' E 018°58'7 7.5
2015-Jul-29 19:33N 54°39' E 018°57'8 8.4
2015-Jul-29 18:33N 54°32' E 018°49'9 8.6
2015-Jul-29 17:33N 54°26' E 018°39'4 3.6
2015-Jul-29 16:27N 54°22' E 018°40'0 0.0
2015-Jul-29 15:33N 54°22' E 018°40'0 0.0
2015-Jul-29 14:33N 54°22' E 018°40'0 0.0
2015-Jul-29 13:33N 54°22' E 018°40'0 0.0
2015-Jul-29 12:33N 54°22' E 018°40'0 0.0
2015-Jul-29 11:27N 54°22' E 018°40'0 0.0
2015-Jul-29 10:33N 54°22' E 018°40'0 0.0
2015-Jul-29 09:33N 54°22' E 018°40'0 0.0
2015-Jul-29 08:33N 54°22' E 018°40'0 0.0
2015-Jul-29 07:33N 54°22' E 018°40'0 0.0
2015-Jul-29 06:33N 54°22' E 018°40'0 0.0
2015-Jul-29 05:33N 54°22' E 018°40'0 0.0
2015-Jul-29 04:33N 54°22' E 018°40'0 0.0
2015-Jul-29 03:33N 54°22' E 018°40'0 0.0
2015-Jul-29 02:33N 54°22' E 018°40'0 0.0
2015-Jul-29 01:33N 54°22' E 018°40'0 0.0
2015-Jul-29 00:33N 54°22' E 018°40'0 0.0
2015-Jul-28 23:33N 54°22' E 018°40'3 2.9
2015-Jul-28 22:33N 54°25' E 018°40'7 7.1
2015-Jul-28 21:33N 54°31' E 018°46'8 7.7
2015-Jul-28 20:33N 54°37' E 018°54'7 7.4
2015-Jul-28 19:33N 54°44' E 018°55'7 7.4
2015-Jul-28 18:33N 54°50' E 018°47'8 7.7
2015-Jul-28 17:33N 54°55' E 018°37'8 8.1
2015-Jul-28 16:33N 54°57' E 018°23'118 8.3
2015-Jul-28 02:17N 54°46' E 014°59'7 8.2
2015-Jul-28 01:27N 54°46' E 014°47'8 8.2
2015-Jul-28 00:29N 54°47' E 014°33'8 8.2
2015-Jul-27 23:33N 54°49' E 014°21'8 8.4
2015-Jul-27 22:33N 54°52' E 014°07'8 8.3
2015-Jul-27 21:33N 54°54' E 013°53'8 8.0
2015-Jul-27 20:33N 54°57' E 013°40'34 7.9
2015-Jul-27 16:15N 55°07' E 012°44'5 7.6
2015-Jul-27 15:32N 55°09' E 012°35'8 7.6
2015-Jul-27 14:32N 55°11' E 012°22'5 0.2
2015-Jul-26 14:21N 55°11' E 012°13'4 4.5
2015-Jul-26 13:33N 55°08' E 012°18'4 3.9
2015-Jul-26 12:29N 55°06' E 012°23'40 4.5
2015-Jul-26 03:33N 54°30' E 011°49'8 8.4
2015-Jul-26 02:33N 54°31' E 011°35'9 8.6
2015-Jul-26 01:33N 54°35' E 011°21'8 8.5
2015-Jul-26 00:33N 54°38' E 011°08'16 8.1
2015-Jul-25 22:32N 54°41' E 010°40'18 0.7
2015-Jul-24 22:08N 54°36' E 011°09'5 9.1
2015-Jul-24 21:33N 54°34' E 011°17'8 8.3
2015-Jul-24 20:34N 54°30' E 011°30'8 8.4
2015-Jul-24 19:33N 54°30' E 011°45'9 8.7
2015-Jul-24 18:33N 54°30' E 011°60'42 3.0
2015-Jul-24 04:32N 55°11' E 012°16'7 7.4
2015-Jul-24 03:33N 55°10' E 012°28'8 8.3
2015-Jul-24 02:33N 55°10' E 012°43'9 8.6
2015-Jul-24 01:33N 55°10' E 012°58'45 8.6
2015-Jul-23 20:17N 55°14' E 014°16'6 8.7
2015-Jul-23 19:33N 55°19' E 014°23'9 8.6
2015-Jul-23 18:33N 55°25' E 014°33'9 8.6
2015-Jul-23 17:33N 55°30' E 014°46'10 8.4
2015-Jul-23 16:21N 55°35' E 015°01'7 8.0
2015-Jul-23 15:29N 55°38' E 015°12'106 8.2
2015-Jul-23 02:30N 56°11' E 018°12'  
Track history (hours):
 
Tides and Currents Weather Stations Pressure Air Temp Water Temp Dewpoint Dewpoint Depression Visibility Wind Speed Wind Dir Waves Ship Positions

Frem Nordica

Last reported at 2015-Jul-31 21:33 UTC. Time now 2015-Aug-01 11:45 UTC.
Position N 57°12' E 017°27'.

Length 79 m; draft 2.8 m.

MMSI: 220439000.

Date/timePositionNaut miles runAvg speedWind from/ knotsBaromVisibWave heightAir tempDewpointWater temp
2015-Jul-31 21:33N 57°12' E 017°27'8 8.1
2015-Jul-31 20:32N 57°19' E 017°32'139 3.1
2015-Jul-29 23:10N 55°07' E 018°48'5 8.0
2015-Jul-29 22:32N 55°02' E 018°50'8 8.1
2015-Jul-29 21:33N 54°54' E 018°54'8 7.9
2015-Jul-29 20:33N 54°47' E 018°58'7 7.5
2015-Jul-29 19:33N 54°39' E 018°57'8 8.4
2015-Jul-29 18:33N 54°32' E 018°49'9 8.6
2015-Jul-29 17:33N 54°26' E 018°39'4 3.6
2015-Jul-29 16:27N 54°22' E 018°40'0 0.0
2015-Jul-29 15:33N 54°22' E 018°40'0 0.0
2015-Jul-29 14:33N 54°22' E 018°40'0 0.0
2015-Jul-29 13:33N 54°22' E 018°40'0 0.0
2015-Jul-29 12:33N 54°22' E 018°40'0 0.0
2015-Jul-29 11:27N 54°22' E 018°40'0 0.0
2015-Jul-29 10:33N 54°22' E 018°40'0 0.0
2015-Jul-29 09:33N 54°22' E 018°40'0 0.0
2015-Jul-29 08:33N 54°22' E 018°40'0 0.0
2015-Jul-29 07:33N 54°22' E 018°40'0 0.0
2015-Jul-29 06:33N 54°22' E 018°40'0 0.0
2015-Jul-29 05:33N 54°22' E 018°40'0 0.0
2015-Jul-29 04:33N 54°22' E 018°40'0 0.0
2015-Jul-29 03:33N 54°22' E 018°40'0 0.0
2015-Jul-29 02:33N 54°22' E 018°40'0 0.0
2015-Jul-29 01:33N 54°22' E 018°40'0 0.0
2015-Jul-29 00:33N 54°22' E 018°40'0 0.0
2015-Jul-28 23:33N 54°22' E 018°40'3 2.9
2015-Jul-28 22:33N 54°25' E 018°40'7 7.1
2015-Jul-28 21:33N 54°31' E 018°46'8 7.7
2015-Jul-28 20:33N 54°37' E 018°54'7 7.4
2015-Jul-28 19:33N 54°44' E 018°55'7 7.4
2015-Jul-28 18:33N 54°50' E 018°47'8 7.7
2015-Jul-28 17:33N 54°55' E 018°37'8 8.1
2015-Jul-28 16:33N 54°57' E 018°23'118 8.3
2015-Jul-28 02:17N 54°46' E 014°59'7 8.2
2015-Jul-28 01:27N 54°46' E 014°47'8 8.2
2015-Jul-28 00:29N 54°47' E 014°33'8 8.2
2015-Jul-27 23:33N 54°49' E 014°21'8 8.4
2015-Jul-27 22:33N 54°52' E 014°07'8 8.3
2015-Jul-27 21:33N 54°54' E 013°53'8 8.0
2015-Jul-27 20:33N 54°57' E 013°40'34 7.9
2015-Jul-27 16:15N 55°07' E 012°44'5 7.6
2015-Jul-27 15:32N 55°09' E 012°35'8 7.6
2015-Jul-27 14:32N 55°11' E 012°22'5 0.2
2015-Jul-26 14:21N 55°11' E 012°13'4 4.5
2015-Jul-26 13:33N 55°08' E 012°18'4 3.9
2015-Jul-26 12:29N 55°06' E 012°23'40 4.5
2015-Jul-26 03:33N 54°30' E 011°49'8 8.4
2015-Jul-26 02:33N 54°31' E 011°35'9 8.6
2015-Jul-26 01:33N 54°35' E 011°21'8 8.5
2015-Jul-26 00:33N 54°38' E 011°08'16 8.1
2015-Jul-25 22:32N 54°41' E 010°40'18 0.7
2015-Jul-24 22:08N 54°36' E 011°09'5 9.1
2015-Jul-24 21:33N 54°34' E 011°17'8 8.3
2015-Jul-24 20:34N 54°30' E 011°30'8 8.4
2015-Jul-24 19:33N 54°30' E 011°45'9 8.7
2015-Jul-24 18:33N 54°30' E 011°60'42 3.0
2015-Jul-24 04:32N 55°11' E 012°16'7 7.4
2015-Jul-24 03:33N 55°10' E 012°28'8 8.3
2015-Jul-24 02:33N 55°10' E 012°43'9 8.6
2015-Jul-24 01:33N 55°10' E 012°58'45 8.6
2015-Jul-23 20:17N 55°14' E 014°16'6 8.7
2015-Jul-23 19:33N 55°19' E 014°23'9 8.6
2015-Jul-23 18:33N 55°25' E 014°33'9 8.6
2015-Jul-23 17:33N 55°30' E 014°46'10 8.4
2015-Jul-23 16:21N 55°35' E 015°01'7 8.0
2015-Jul-23 15:29N 55°38' E 015°12'106 8.2
2015-Jul-23 02:30N 56°11' E 018°12'  

Dump ship's entire track history